createdAt,value
2023-01-10T00:14:02.871Z,100.00
2023-01-10T00:17:21.217Z,100.00
2023-01-10T00:24:48.089Z,100.00
2023-01-10T00:28:25.626Z,100.00
2023-01-10T00:32:33.725Z,100.00
2023-01-10T00:39:56.470Z,100.00
2023-01-10T00:43:33.658Z,100.00
2023-01-10T00:47:18.169Z,100.00
2023-01-10T00:50:57.320Z,100.00
2023-01-10T00:54:20.717Z,100.00
2023-01-10T01:04:42.761Z,100.00
2023-01-10T01:08:06.705Z,100.00
2023-01-10T01:11:08.861Z,100.00
2023-01-10T01:17:40.190Z,100.00
2023-01-10T01:36:09.150Z,100.00
2023-01-10T01:44:32.689Z,100.00
2023-01-10T01:51:20.439Z,100.00
2023-01-10T01:55:11.994Z,100.00
2023-01-10T01:58:50.459Z,100.00
2023-01-10T02:03:03.438Z,100.00
2023-01-10T02:11:06.423Z,100.00
2023-01-10T02:15:02.776Z,100.00
2023-01-10T02:22:11.855Z,100.00
2023-01-10T02:25:12.670Z,100.00
2023-01-10T02:32:47.758Z,100.00
2023-01-10T02:36:15.318Z,100.00
2023-01-10T02:43:24.844Z,100.00
2023-01-10T02:46:40.394Z,100.00
2023-01-10T02:53:26.688Z,100.00
2023-01-10T02:56:36.786Z,100.00
2023-01-10T03:00:09.565Z,100.00
2023-01-10T03:03:35.211Z,100.00
2023-01-10T03:07:05.989Z,100.00
2023-01-10T03:10:55.316Z,100.00
2023-01-10T03:13:53.944Z,100.00
2023-01-10T03:17:31.421Z,100.00
2023-01-10T03:20:28.622Z,100.00
2023-01-10T03:23:56.742Z,100.00
2023-01-10T03:27:43.284Z,100.00
2023-01-10T03:31:16.627Z,100.00
2023-01-10T03:42:06.582Z,100.00
2023-01-10T03:52:47.911Z,100.00
2023-01-10T03:56:10.766Z,100.00
2023-01-10T03:59:19.955Z,100.00
2023-01-10T04:06:48.459Z,100.00
2023-01-10T04:09:48.809Z,100.00
2023-01-10T04:16:52.857Z,100.00
2023-01-10T04:19:50.274Z,100.00
2023-01-10T04:23:15.514Z,100.00
2023-01-10T04:26:13.957Z,100.00
2023-01-10T04:29:37.107Z,100.00
2023-01-10T04:35:32.112Z,100.00
2023-01-10T04:41:46.577Z,100.00
2023-01-10T04:45:38.092Z,100.00
2023-01-10T04:49:37.576Z,100.00
2023-01-10T04:52:47.880Z,100.00
2023-01-10T04:56:05.055Z,100.00
2023-01-10T04:59:36.404Z,100.00
2023-01-10T05:09:35.940Z,100.00
2023-01-10T05:13:08.729Z,100.00
2023-01-10T05:17:37.935Z,100.00
2023-01-10T05:24:54.715Z,100.00
2023-01-10T05:32:47.251Z,100.00
2023-01-10T05:40:15.954Z,100.00
2023-01-10T05:43:55.139Z,100.00
2023-01-10T05:51:23.419Z,100.00
2023-01-10T05:58:35.305Z,100.00
2023-01-10T06:01:07.472Z,100.00
2023-01-10T06:03:46.925Z,100.00
2023-01-10T06:06:15.014Z,100.00
2023-01-10T06:08:44.024Z,100.00
2023-01-10T06:11:14.585Z,100.00
2023-01-10T06:13:50.627Z,100.00
2023-01-10T06:16:20.832Z,100.00
2023-01-10T06:18:49.796Z,100.00
2023-01-10T06:21:17.513Z,100.00
2023-01-10T06:23:46.281Z,100.00
2023-01-10T06:26:14.261Z,100.00
2023-01-10T06:28:42.184Z,100.00
2023-01-10T06:31:09.995Z,100.00
2023-01-10T06:33:39.264Z,100.00
2023-01-10T06:36:10.165Z,100.00
2023-01-10T06:38:42.892Z,100.00
2023-01-10T06:41:24.823Z,100.00
2023-01-10T06:43:59.521Z,100.00
2023-01-10T06:46:46.068Z,100.00
2023-01-10T06:49:15.119Z,100.00
2023-01-10T06:51:43.914Z,100.00
2023-01-10T06:54:11.721Z,100.00
2023-01-10T06:56:43.889Z,100.00
2023-01-10T06:59:11.806Z,100.00
2023-01-10T07:01:39.953Z,100.00
2023-01-10T07:04:13.627Z,100.00
2023-01-10T07:16:42.924Z,100.00
2023-01-10T07:19:17.742Z,100.00
2023-01-10T07:21:45.310Z,100.00
2023-01-10T07:24:12.945Z,100.00
2023-01-10T07:26:40.848Z,100.00
2023-01-10T07:29:08.523Z,100.00
2023-01-10T07:31:36.003Z,100.00
2023-01-10T07:34:03.989Z,100.00
2023-01-10T07:36:32.177Z,100.00
2023-01-10T07:38:59.718Z,100.00
2023-01-10T07:41:27.202Z,100.00
2023-01-10T07:43:54.613Z,100.00
2023-01-10T07:46:22.100Z,100.00
2023-01-10T07:48:49.653Z,100.00
2023-01-10T07:51:17.100Z,100.00
2023-01-10T07:53:44.549Z,100.00
2023-01-10T07:56:12.142Z,100.00
2023-01-10T07:58:39.466Z,100.00
2023-01-10T08:01:07.737Z,100.00
2023-01-10T08:03:35.810Z,100.00
2023-01-10T08:06:06.288Z,100.00
2023-01-10T08:08:34.632Z,100.00
2023-01-10T08:11:05.232Z,100.00
2023-01-10T08:13:33.071Z,100.00
2023-01-10T08:16:05.249Z,100.00
2023-01-10T08:18:33.241Z,100.00
2023-01-10T08:21:01.040Z,100.00
2023-01-10T08:23:28.639Z,100.00
2023-01-10T08:25:58.937Z,100.00
2023-01-10T08:28:26.530Z,100.00
2023-01-10T08:30:55.931Z,100.00
2023-01-10T08:33:25.157Z,100.00
2023-01-10T08:35:52.669Z,100.00
2023-01-10T08:38:20.172Z,100.00
2023-01-10T08:40:47.572Z,100.00
2023-01-10T08:43:15.550Z,100.00
2023-01-10T08:45:42.998Z,100.00
2023-01-10T08:48:10.891Z,100.00
2023-01-10T08:50:38.369Z,100.00
2023-01-10T08:53:05.954Z,100.00
2023-01-10T08:55:35.599Z,100.00
2023-01-10T08:58:03.189Z,100.00
2023-01-10T09:00:31.031Z,99.84
2023-01-10T09:02:58.740Z,94.30
2023-01-10T09:05:27.690Z,89.23
2023-01-10T09:08:00.570Z,87.65
2023-01-10T09:10:29.550Z,80.46
2023-01-10T09:13:01.912Z,82.53
2023-01-10T09:15:35.148Z,82.10
2023-01-10T09:18:07.779Z,81.05
2023-01-10T09:20:38.354Z,77.31
2023-01-10T09:23:10.733Z,84.51
2023-01-10T09:25:38.852Z,76.53
2023-01-10T09:28:06.708Z,83.11
2023-01-10T09:30:34.309Z,85.38
2023-01-10T09:33:02.727Z,87.12
2023-01-10T09:35:31.482Z,82.09
2023-01-10T09:38:01.444Z,68.95
2023-01-10T09:41:09.528Z,59.36
2023-01-10T09:44:06.036Z,58.94
2023-01-10T09:53:08.508Z,46.85
2023-01-10T09:55:38.914Z,43.67
2023-01-10T09:58:13.151Z,42.57
2023-01-10T10:00:52.716Z,41.44
2023-01-10T10:03:41.274Z,41.53
2023-01-10T10:06:17.385Z,38.69
2023-01-10T10:08:48.814Z,35.34
2023-01-10T10:11:28.122Z,36.25
2023-01-10T10:14:07.500Z,33.32
2023-01-10T10:16:47.572Z,37.20
2023-01-10T10:19:43.639Z,37.43
2023-01-10T10:22:36.814Z,34.96
2023-01-10T10:25:10.902Z,37.53
2023-01-10T10:28:06.577Z,38.17
2023-01-10T10:30:48.917Z,40.23
2023-01-10T10:33:19.190Z,46.06
2023-01-10T10:35:55.842Z,47.90
2023-01-10T10:38:32.279Z,47.32
2023-01-10T10:41:01.571Z,48.12
2023-01-10T10:43:35.472Z,49.16
2023-01-10T10:46:12.845Z,50.84
2023-01-10T10:48:48.154Z,45.77
2023-01-10T10:51:26.655Z,44.60
2023-01-10T10:53:56.763Z,45.07
2023-01-10T10:56:26.591Z,44.39
2023-01-10T10:58:57.135Z,45.84
2023-01-10T11:01:26.640Z,48.26
2023-01-10T11:04:19.504Z,43.15
2023-01-10T11:06:50.353Z,46.87
2023-01-10T11:09:33.646Z,46.31
2023-01-10T11:12:03.377Z,51.03
2023-01-10T11:14:43.208Z,48.61
2023-01-10T11:17:27.212Z,50.59
2023-01-10T11:20:06.664Z,48.18
2023-01-10T11:22:40.680Z,43.33
2023-01-10T11:25:18.786Z,43.75
2023-01-10T11:28:14.519Z,45.44
2023-01-10T11:30:48.581Z,45.41
2023-01-10T11:33:24.894Z,44.88
2023-01-10T11:35:58.091Z,47.13
2023-01-10T11:38:30.040Z,47.74
2023-01-10T11:40:58.868Z,45.19
2023-01-10T11:43:37.905Z,47.42
2023-01-10T11:46:21.086Z,44.31
2023-01-10T11:49:06.370Z,47.69
2023-01-10T11:51:50.094Z,44.28
2023-01-10T11:54:25.217Z,42.51
2023-01-10T11:57:01.717Z,42.77
2023-01-10T11:59:30.048Z,39.85
2023-01-10T12:02:25.455Z,39.33
2023-01-10T12:04:55.559Z,37.82
2023-01-10T12:07:24.143Z,38.54
2023-01-10T12:09:59.004Z,38.78
2023-01-10T12:12:29.335Z,38.85
2023-01-10T12:29:39.703Z,39.11
2023-01-10T12:45:37.245Z,39.26
2023-01-10T12:57:58.385Z,38.69
2023-01-10T13:05:05.870Z,47.88
2023-01-10T13:08:56.616Z,47.49
2023-01-10T13:15:47.309Z,43.14
2023-01-10T13:19:01.900Z,45.61
2023-01-10T13:24:38.225Z,46.22
2023-01-10T13:27:47.477Z,46.76
2023-01-10T13:31:06.364Z,46.74
2023-01-10T13:34:58.440Z,47.46
2023-01-10T13:37:45.501Z,45.41
2023-01-10T13:40:27.904Z,45.73
2023-01-10T13:43:36.958Z,46.12
2023-01-10T13:46:16.524Z,45.25
2023-01-10T13:49:10.026Z,45.20
2023-01-10T13:51:39.311Z,44.33
2023-01-10T13:54:18.512Z,45.14
2023-01-10T13:56:45.976Z,45.24
2023-01-10T13:59:40.875Z,45.47
2023-01-10T14:02:34.149Z,47.42
2023-01-10T14:05:04.851Z,49.56
2023-01-10T14:07:46.478Z,50.55
2023-01-10T14:10:23.575Z,52.78
2023-01-10T14:13:09.206Z,53.31
2023-01-10T14:15:43.231Z,55.02
2023-01-10T14:18:22.125Z,54.81
2023-01-10T14:21:02.321Z,53.66
2023-01-10T14:23:52.239Z,52.48
2023-01-10T14:26:32.606Z,52.43
2023-01-10T14:29:05.675Z,51.84
2023-01-10T14:31:37.081Z,52.61
2023-01-10T14:34:08.407Z,53.82
2023-01-10T14:36:49.069Z,55.98
2023-01-10T14:39:16.883Z,56.21
2023-01-10T14:41:49.742Z,56.01
2023-01-10T14:44:31.215Z,54.96
2023-01-10T14:47:04.534Z,54.82
2023-01-10T14:49:49.126Z,54.83
2023-01-10T14:52:21.478Z,57.09
2023-01-10T14:55:11.359Z,58.47
2023-01-10T14:57:39.128Z,58.04
2023-01-10T15:00:17.463Z,56.64
2023-01-10T15:02:47.560Z,58.73
2023-01-10T15:05:27.082Z,58.72
2023-01-10T15:07:56.119Z,59.49
2023-01-10T15:10:28.654Z,60.89
2023-01-10T15:12:59.074Z,58.79
2023-01-10T15:15:33.701Z,60.26
2023-01-10T15:18:07.560Z,60.47
2023-01-10T15:20:35.107Z,59.14
2023-01-10T15:23:02.576Z,59.71
2023-01-10T15:25:38.212Z,63.95
2023-01-10T15:28:16.613Z,62.76
2023-01-10T15:30:45.021Z,63.70
2023-01-10T15:33:29.238Z,65.52
2023-01-10T15:36:03.248Z,67.99
2023-01-10T15:38:35.508Z,68.57
2023-01-10T15:41:06.090Z,65.71
2023-01-10T15:43:35.528Z,64.48
2023-01-10T15:46:07.095Z,64.72
2023-01-10T15:48:46.140Z,64.74
2023-01-10T15:51:47.696Z,66.24
2023-01-10T15:54:18.320Z,65.18
2023-01-10T15:57:12.523Z,66.32
2023-01-10T15:59:50.527Z,65.07
2023-01-10T16:02:37.946Z,65.35
2023-01-10T16:05:15.799Z,65.96
2023-01-10T16:07:48.223Z,66.33
2023-01-10T16:10:21.687Z,67.43
2023-01-10T16:13:08.325Z,67.71
2023-01-10T16:15:44.210Z,68.38
2023-01-10T16:18:14.554Z,69.04
2023-01-10T16:20:46.263Z,71.52
2023-01-10T16:23:29.324Z,71.65
2023-01-10T16:26:09.338Z,70.15
2023-01-10T16:28:38.198Z,68.40
2023-01-10T16:31:07.167Z,62.33
2023-01-10T16:33:37.012Z,60.22
2023-01-10T16:36:13.508Z,59.72
2023-01-10T16:38:41.822Z,60.11
2023-01-10T16:41:30.419Z,53.70
2023-01-10T16:43:58.731Z,54.28
2023-01-10T16:46:26.737Z,52.03
2023-01-10T16:49:13.427Z,47.76
2023-01-10T16:51:41.554Z,48.08
2023-01-10T16:54:14.948Z,47.04
2023-01-10T16:56:44.433Z,47.05
2023-01-10T16:59:13.515Z,46.89
2023-01-10T17:01:50.623Z,46.74
2023-01-10T17:04:44.145Z,46.79
2023-01-10T19:31:54.202Z,57.38
2023-01-10T20:25:55.929Z,57.74
2023-01-10T20:29:29.921Z,57.50
2023-01-10T20:32:54.962Z,60.53
2023-01-10T20:36:00.415Z,63.81
2023-01-10T20:38:42.936Z,62.41
2023-01-10T20:41:21.858Z,63.71
2023-01-10T20:44:10.220Z,64.98
2023-01-10T20:46:41.216Z,61.63
2023-01-10T20:49:20.863Z,62.36
2023-01-10T20:52:00.061Z,62.67
2023-01-10T20:54:34.653Z,58.70
2023-01-10T20:57:05.030Z,59.76
2023-01-10T21:00:08.288Z,59.17
2023-01-10T21:10:07.162Z,57.25
2023-01-10T21:13:01.886Z,56.56
2023-01-10T21:16:54.652Z,60.95
2023-01-10T21:19:58.822Z,63.98
2023-01-10T21:22:43.046Z,61.40
2023-01-10T21:33:10.326Z,60.77
2023-01-10T22:14:01.029Z,76.72
2023-01-10T22:16:53.696Z,75.53
